Terminal Aerodrome Forecast
Issued by NWS

Current Version | Previous Version | Text Only | Print | Product List | Glossary Off
Versions: 1 2 3 4 5 6 7 8 9 10 11 12 13 14 15 16 17 18 19 20 21 22 23 24 25 26 27 28 29 30 31 32 33

064
FTUS41 KPBZ 212116 AAB
TAFHLG
TAF AMD
KHLG 212116Z 2121/2218 36015KT P6SM OVC005
     FM212300 35010KT P6SM OVC025
     FM220600 02009KT 5SM -RA OVC015
     FM221500 05011KT 3SM -RA BR OVC008=

USA.gov is the U.S. government's official web portal to all federal, state and local government web resources and services.